sensor_id;sensor_type;location;lat;lon;timestamp;temperature;humidity
36206;DHT22;22242;48.796;9.930;2023-04-24T00:00:21;10.40;99.90
36206;DHT22;22242;48.796;9.930;2023-04-24T00:02:48;10.50;99.90
36206;DHT22;22242;48.796;9.930;2023-04-24T00:05:17;10.60;99.90
36206;DHT22;22242;48.796;9.930;2023-04-24T00:07:44;10.60;99.90
36206;DHT22;22242;48.796;9.930;2023-04-24T00:10:12;10.70;99.90
36206;DHT22;22242;48.796;9.930;2023-04-24T00:12:39;10.50;99.90
36206;DHT22;22242;48.796;9.930;2023-04-24T00:15:09;10.50;99.90
36206;DHT22;22242;48.796;9.930;2023-04-24T00:17:36;10.60;99.90
36206;DHT22;22242;48.796;9.930;2023-04-24T00:20:04;10.50;99.90
36206;DHT22;22242;48.796;9.930;2023-04-24T00:22:32;10.60;99.90
36206;DHT22;22242;48.796;9.930;2023-04-24T00:24:59;10.50;99.90
36206;DHT22;22242;48.796;9.930;2023-04-24T00:27:26;10.30;99.90
36206;DHT22;22242;48.796;9.930;2023-04-24T00:29:54;10.10;99.90
36206;DHT22;22242;48.796;9.930;2023-04-24T00:32:22;10.00;99.90
36206;DHT22;22242;48.796;9.930;2023-04-24T00:34:49;9.90;99.90
36206;DHT22;22242;48.796;9.930;2023-04-24T00:37:16;10.00;99.90
36206;DHT22;22242;48.796;9.930;2023-04-24T00:39:44;10.10;99.90
36206;DHT22;22242;48.796;9.930;2023-04-24T00:42:11;10.40;99.90
36206;DHT22;22242;48.796;9.930;2023-04-24T00:44:38;10.40;99.90
36206;DHT22;22242;48.796;9.930;2023-04-24T00:47:06;10.40;99.90
36206;DHT22;22242;48.796;9.930;2023-04-24T00:49:35;10.40;99.90
36206;DHT22;22242;48.796;9.930;2023-04-24T00:52:02;10.50;99.90
36206;DHT22;22242;48.796;9.930;2023-04-24T00:54:33;10.50;99.90
36206;DHT22;22242;48.796;9.930;2023-04-24T00:57:00;10.50;99.90
36206;DHT22;22242;48.796;9.930;2023-04-24T00:59:28;10.40;99.90
36206;DHT22;22242;48.796;9.930;2023-04-24T01:01:55;10.20;99.90
36206;DHT22;22242;48.796;9.930;2023-04-24T01:04:23;10.10;99.90
36206;DHT22;22242;48.796;9.930;2023-04-24T01:06:54;10.00;99.90
36206;DHT22;22242;48.796;9.930;2023-04-24T01:09:23;10.00;99.90
36206;DHT22;22242;48.796;9.930;2023-04-24T01:11:50;9.90;99.90
36206;DHT22;22242;48.796;9.930;2023-04-24T01:14:17;9.90;99.90
36206;DHT22;22242;48.796;9.930;2023-04-24T01:16:45;10.00;99.90
36206;DHT22;22242;48.796;9.930;2023-04-24T01:19:13;10.00;99.90
36206;DHT22;22242;48.796;9.930;2023-04-24T01:21:43;10.00;99.90
36206;DHT22;22242;48.796;9.930;2023-04-24T01:24:12;10.10;99.90
36206;DHT22;22242;48.796;9.930;2023-04-24T01:26:39;10.00;99.90
36206;DHT22;22242;48.796;9.930;2023-04-24T01:29:07;10.00;99.90
36206;DHT22;22242;48.796;9.930;2023-04-24T01:31:34;10.00;99.90
36206;DHT22;22242;48.796;9.930;2023-04-24T01:34:02;10.00;99.90
36206;DHT22;22242;48.796;9.930;2023-04-24T01:36:30;10.00;99.90
36206;DHT22;22242;48.796;9.930;2023-04-24T01:38:57;10.10;99.90
36206;DHT22;22242;48.796;9.930;2023-04-24T01:41:26;10.10;99.90
36206;DHT22;22242;48.796;9.930;2023-04-24T01:43:54;10.10;99.90
36206;DHT22;22242;48.796;9.930;2023-04-24T01:46:22;10.20;99.90
36206;DHT22;22242;48.796;9.930;2023-04-24T01:48:49;10.20;99.90
36206;DHT22;22242;48.796;9.930;2023-04-24T01:51:19;10.20;99.90
36206;DHT22;22242;48.796;9.930;2023-04-24T01:53:46;10.20;99.90
36206;DHT22;22242;48.796;9.930;2023-04-24T01:56:14;10.20;99.90
36206;DHT22;22242;48.796;9.930;2023-04-24T01:58:43;10.20;99.90
36206;DHT22;22242;48.796;9.930;2023-04-24T02:01:15;10.20;99.90
36206;DHT22;22242;48.796;9.930;2023-04-24T02:03:42;10.20;99.90
36206;DHT22;22242;48.796;9.930;2023-04-24T02:06:09;10.30;99.90
36206;DHT22;22242;48.796;9.930;2023-04-24T02:08:36;10.30;99.90
36206;DHT22;22242;48.796;9.930;2023-04-24T02:11:03;10.30;99.90
36206;DHT22;22242;48.796;9.930;2023-04-24T02:13:31;10.30;99.90
36206;DHT22;22242;48.796;9.930;2023-04-24T02:16:02;10.30;99.90
36206;DHT22;22242;48.796;9.930;2023-04-24T02:18:29;10.20;99.90
36206;DHT22;22242;48.796;9.930;2023-04-24T02:20:56;10.10;99.90
36206;DHT22;22242;48.796;9.930;2023-04-24T02:23:23;10.00;99.90
36206;DHT22;22242;48.796;9.930;2023-04-24T02:25:51;9.90;99.90
36206;DHT22;22242;48.796;9.930;2023-04-24T02:28:19;9.90;99.90
36206;DHT22;22242;48.796;9.930;2023-04-24T02:30:46;9.70;99.90
36206;DHT22;22242;48.796;9.930;2023-04-24T02:33:14;9.70;99.90
36206;DHT22;22242;48.796;9.930;2023-04-24T02:35:41;9.70;99.90
36206;DHT22;22242;48.796;9.930;2023-04-24T02:38:08;9.60;99.90
36206;DHT22;22242;48.796;9.930;2023-04-24T02:40:35;9.50;99.90
36206;DHT22;22242;48.796;9.930;2023-04-24T02:43:03;9.50;99.90
36206;DHT22;22242;48.796;9.930;2023-04-24T02:45:30;9.50;99.90
36206;DHT22;22242;48.796;9.930;2023-04-24T02:47:57;9.60;99.90
36206;DHT22;22242;48.796;9.930;2023-04-24T02:50:25;9.70;99.90
36206;DHT22;22242;48.796;9.930;2023-04-24T02:52:52;9.90;99.90
36206;DHT22;22242;48.796;9.930;2023-04-24T02:55:19;10.30;99.90
36206;DHT22;22242;48.796;9.930;2023-04-24T02:57:46;10.40;99.90
36206;DHT22;22242;48.796;9.930;2023-04-24T03:00:14;10.30;99.90
36206;DHT22;22242;48.796;9.930;2023-04-24T03:02:41;10.30;99.90
36206;DHT22;22242;48.796;9.930;2023-04-24T03:05:08;10.30;99.90
36206;DHT22;22242;48.796;9.930;2023-04-24T03:07:39;10.20;99.90
36206;DHT22;22242;48.796;9.930;2023-04-24T03:10:07;10.30;99.90
36206;DHT22;22242;48.796;9.930;2023-04-24T03:12:34;10.40;99.90
36206;DHT22;22242;48.796;9.930;2023-04-24T03:15:01;10.20;99.90
36206;DHT22;22242;48.796;9.930;2023-04-24T03:17:29;9.80;99.90
36206;DHT22;22242;48.796;9.930;2023-04-24T03:19:56;9.90;99.90
36206;DHT22;22242;48.796;9.930;2023-04-24T03:22:23;10.00;99.90
36206;DHT22;22242;48.796;9.930;2023-04-24T03:24:51;9.90;99.90
36206;DHT22;22242;48.796;9.930;2023-04-24T03:27:19;9.80;99.90
36206;DHT22;22242;48.796;9.930;2023-04-24T03:30:12;9.80;99.90
36206;DHT22;22242;48.796;9.930;2023-04-24T03:32:47;10.00;99.90
36206;DHT22;22242;48.796;9.930;2023-04-24T03:35:20;10.20;99.90
36206;DHT22;22242;48.796;9.930;2023-04-24T03:37:48;10.30;99.90
36206;DHT22;22242;48.796;9.930;2023-04-24T03:40:45;10.30;99.90
36206;DHT22;22242;48.796;9.930;2023-04-24T03:43:39;10.40;99.90
36206;DHT22;22242;48.796;9.930;2023-04-24T03:46:07;10.40;99.90
36206;DHT22;22242;48.796;9.930;2023-04-24T03:48:39;10.40;99.90
36206;DHT22;22242;48.796;9.930;2023-04-24T03:51:08;10.50;99.90
36206;DHT22;22242;48.796;9.930;2023-04-24T03:53:36;10.40;99.90
36206;DHT22;22242;48.796;9.930;2023-04-24T03:56:05;10.50;99.90
36206;DHT22;22242;48.796;9.930;2023-04-24T03:58:33;10.40;99.90
36206;DHT22;22242;48.796;9.930;2023-04-24T04:01:00;10.50;99.90
36206;DHT22;22242;48.796;9.930;2023-04-24T04:03:42;10.50;99.90
36206;DHT22;22242;48.796;9.930;2023-04-24T04:06:10;10.50;99.90
36206;DHT22;22242;48.796;9.930;2023-04-24T04:08:39;10.50;99.90
36206;DHT22;22242;48.796;9.930;2023-04-24T04:11:07;10.50;99.90
36206;DHT22;22242;48.796;9.930;2023-04-24T04:13:34;10.50;99.90
36206;DHT22;22242;48.796;9.930;2023-04-24T04:16:01;10.50;99.90
36206;DHT22;22242;48.796;9.930;2023-04-24T04:18:28;10.50;99.90
36206;DHT22;22242;48.796;9.930;2023-04-24T04:20:56;10.40;99.90
36206;DHT22;22242;48.796;9.930;2023-04-24T04:23:23;10.30;99.90
36206;DHT22;22242;48.796;9.930;2023-04-24T04:26:04;10.40;99.90
36206;DHT22;22242;48.796;9.930;2023-04-24T04:28:48;10.30;99.90
36206;DHT22;22242;48.796;9.930;2023-04-24T04:31:16;10.40;99.90
36206;DHT22;22242;48.796;9.930;2023-04-24T04:33:42;10.50;99.90
36206;DHT22;22242;48.796;9.930;2023-04-24T04:36:11;10.40;99.90
36206;DHT22;22242;48.796;9.930;2023-04-24T04:38:42;10.30;99.90
36206;DHT22;22242;48.796;9.930;2023-04-24T04:41:30;10.30;99.90
36206;DHT22;22242;48.796;9.930;2023-04-24T04:43:59;10.30;99.90
36206;DHT22;22242;48.796;9.930;2023-04-24T04:46:26;10.30;99.90
36206;DHT22;22242;48.796;9.930;2023-04-24T04:49:02;10.40;99.90
36206;DHT22;22242;48.796;9.930;2023-04-24T04:51:29;10.40;99.90
36206;DHT22;22242;48.796;9.930;2023-04-24T04:53:57;10.40;99.90
36206;DHT22;22242;48.796;9.930;2023-04-24T04:56:24;10.40;99.90
36206;DHT22;22242;48.796;9.930;2023-04-24T04:58:52;10.50;99.90
36206;DHT22;22242;48.796;9.930;2023-04-24T05:01:20;10.50;99.90
36206;DHT22;22242;48.796;9.930;2023-04-24T05:03:49;10.50;99.90
36206;DHT22;22242;48.796;9.930;2023-04-24T05:06:17;10.60;99.90
36206;DHT22;22242;48.796;9.930;2023-04-24T05:08:45;10.60;99.90
36206;DHT22;22242;48.796;9.930;2023-04-24T05:11:24;10.50;99.90
36206;DHT22;22242;48.796;9.930;2023-04-24T05:13:53;10.60;99.90
36206;DHT22;22242;48.796;9.930;2023-04-24T05:16:29;10.60;99.90
36206;DHT22;22242;48.796;9.930;2023-04-24T05:18:57;10.60;99.90
36206;DHT22;22242;48.796;9.930;2023-04-24T05:21:29;10.60;99.90
36206;DHT22;22242;48.796;9.930;2023-04-24T05:23:56;10.60;99.90
36206;DHT22;22242;48.796;9.930;2023-04-24T05:26:39;10.50;99.90
36206;DHT22;22242;48.796;9.930;2023-04-24T05:29:07;10.50;99.90
36206;DHT22;22242;48.796;9.930;2023-04-24T05:31:36;10.30;99.90
36206;DHT22;22242;48.796;9.930;2023-04-24T05:34:04;9.70;99.90
36206;DHT22;22242;48.796;9.930;2023-04-24T05:36:31;9.40;99.90
36206;DHT22;22242;48.796;9.930;2023-04-24T05:38:58;9.10;99.90
36206;DHT22;22242;48.796;9.930;2023-04-24T05:41:25;8.90;99.90
36206;DHT22;22242;48.796;9.930;2023-04-24T05:43:52;8.70;99.90
36206;DHT22;22242;48.796;9.930;2023-04-24T05:46:20;8.70;99.90
36206;DHT22;22242;48.796;9.930;2023-04-24T05:48:48;8.70;99.90
36206;DHT22;22242;48.796;9.930;2023-04-24T05:51:16;8.60;99.90
36206;DHT22;22242;48.796;9.930;2023-04-24T05:53:43;8.70;99.90
36206;DHT22;22242;48.796;9.930;2023-04-24T05:56:14;8.70;99.90
36206;DHT22;22242;48.796;9.930;2023-04-24T05:58:41;8.70;99.90
36206;DHT22;22242;48.796;9.930;2023-04-24T06:01:09;8.70;99.90
36206;DHT22;22242;48.796;9.930;2023-04-24T06:03:37;8.70;99.90
36206;DHT22;22242;48.796;9.930;2023-04-24T06:06:07;8.80;99.90
36206;DHT22;22242;48.796;9.930;2023-04-24T06:08:35;8.70;99.90
36206;DHT22;22242;48.796;9.930;2023-04-24T06:11:02;8.80;99.90
36206;DHT22;22242;48.796;9.930;2023-04-24T06:13:29;9.00;99.90
36206;DHT22;22242;48.796;9.930;2023-04-24T06:16:19;9.00;99.90
36206;DHT22;22242;48.796;9.930;2023-04-24T06:18:53;8.90;99.90
36206;DHT22;22242;48.796;9.930;2023-04-24T06:21:22;9.10;99.90
36206;DHT22;22242;48.796;9.930;2023-04-24T06:23:49;9.10;99.90
36206;DHT22;22242;48.796;9.930;2023-04-24T06:26:17;9.10;99.90
36206;DHT22;22242;48.796;9.930;2023-04-24T06:28:43;9.10;99.90
36206;DHT22;22242;48.796;9.930;2023-04-24T06:31:11;9.30;99.90
36206;DHT22;22242;48.796;9.930;2023-04-24T06:33:38;9.30;99.90
36206;DHT22;22242;48.796;9.930;2023-04-24T06:36:05;9.30;99.90
36206;DHT22;22242;48.796;9.930;2023-04-24T06:38:34;9.40;99.90
36206;DHT22;22242;48.796;9.930;2023-04-24T06:41:01;9.50;99.90
36206;DHT22;22242;48.796;9.930;2023-04-24T06:43:29;9.60;99.90
36206;DHT22;22242;48.796;9.930;2023-04-24T06:45:56;9.50;99.90
36206;DHT22;22242;48.796;9.930;2023-04-24T06:48:24;9.70;99.90
36206;DHT22;22242;48.796;9.930;2023-04-24T06:50:51;10.50;99.90
36206;DHT22;22242;48.796;9.930;2023-04-24T06:53:18;11.00;99.90
36206;DHT22;22242;48.796;9.930;2023-04-24T06:55:47;11.20;99.90
36206;DHT22;22242;48.796;9.930;2023-04-24T06:58:14;11.00;99.90
36206;DHT22;22242;48.796;9.930;2023-04-24T07:00:41;11.00;99.90
36206;DHT22;22242;48.796;9.930;2023-04-24T07:03:08;10.90;99.90
36206;DHT22;22242;48.796;9.930;2023-04-24T07:05:35;11.00;99.90
36206;DHT22;22242;48.796;9.930;2023-04-24T07:08:04;11.10;99.90
36206;DHT22;22242;48.796;9.930;2023-04-24T07:10:32;11.20;99.90
36206;DHT22;22242;48.796;9.930;2023-04-24T07:13:01;11.50;99.90
36206;DHT22;22242;48.796;9.930;2023-04-24T07:15:28;12.30;99.90
36206;DHT22;22242;48.796;9.930;2023-04-24T07:17:55;12.60;99.90
36206;DHT22;22242;48.796;9.930;2023-04-24T07:20:22;13.30;99.90
36206;DHT22;22242;48.796;9.930;2023-04-24T07:22:49;14.30;99.90
36206;DHT22;22242;48.796;9.930;2023-04-24T07:25:17;15.10;99.90
36206;DHT22;22242;48.796;9.930;2023-04-24T07:27:45;15.10;99.90
36206;DHT22;22242;48.796;9.930;2023-04-24T07:30:13;15.70;99.90
36206;DHT22;22242;48.796;9.930;2023-04-24T07:32:41;16.20;99.90
36206;DHT22;22242;48.796;9.930;2023-04-24T07:35:08;16.50;99.90
36206;DHT22;22242;48.796;9.930;2023-04-24T07:37:35;16.50;99.90
36206;DHT22;22242;48.796;9.930;2023-04-24T07:40:03;17.80;99.90
36206;DHT22;22242;48.796;9.930;2023-04-24T07:42:30;17.80;99.90
36206;DHT22;22242;48.796;9.930;2023-04-24T07:45:00;18.70;99.90
36206;DHT22;22242;48.796;9.930;2023-04-24T07:47:29;18.30;99.90
36206;DHT22;22242;48.796;9.930;2023-04-24T07:49:56;18.10;99.90
36206;DHT22;22242;48.796;9.930;2023-04-24T07:52:23;15.60;99.90
36206;DHT22;22242;48.796;9.930;2023-04-24T07:54:50;14.80;99.90
36206;DHT22;22242;48.796;9.930;2023-04-24T07:57:18;13.30;99.90
36206;DHT22;22242;48.796;9.930;2023-04-24T07:59:45;13.00;99.90
36206;DHT22;22242;48.796;9.930;2023-04-24T08:02:12;12.40;99.90
36206;DHT22;22242;48.796;9.930;2023-04-24T08:04:42;12.20;99.90
36206;DHT22;22242;48.796;9.930;2023-04-24T08:07:08;12.10;99.90
36206;DHT22;22242;48.796;9.930;2023-04-24T08:09:36;12.60;99.90
36206;DHT22;22242;48.796;9.930;2023-04-24T08:12:03;12.60;99.90
36206;DHT22;22242;48.796;9.930;2023-04-24T08:14:30;12.80;99.90
36206;DHT22;22242;48.796;9.930;2023-04-24T08:16:57;13.10;99.90
36206;DHT22;22242;48.796;9.930;2023-04-24T08:19:25;14.50;99.90
36206;DHT22;22242;48.796;9.930;2023-04-24T08:21:54;14.30;99.90
36206;DHT22;22242;48.796;9.930;2023-04-24T08:24:21;14.20;99.90
36206;DHT22;22242;48.796;9.930;2023-04-24T08:26:48;13.40;99.90
36206;DHT22;22242;48.796;9.930;2023-04-24T08:29:17;12.70;99.90
36206;DHT22;22242;48.796;9.930;2023-04-24T08:31:44;11.20;99.90
36206;DHT22;22242;48.796;9.930;2023-04-24T08:34:11;10.60;99.90
36206;DHT22;22242;48.796;9.930;2023-04-24T08:36:38;10.00;99.90
36206;DHT22;22242;48.796;9.930;2023-04-24T08:39:08;9.60;99.90
36206;DHT22;22242;48.796;9.930;2023-04-24T08:41:36;9.50;99.90
36206;DHT22;22242;48.796;9.930;2023-04-24T08:44:03;9.90;99.90
36206;DHT22;22242;48.796;9.930;2023-04-24T08:46:31;10.40;99.90
36206;DHT22;22242;48.796;9.930;2023-04-24T08:48:59;11.00;99.90
36206;DHT22;22242;48.796;9.930;2023-04-24T08:51:27;13.00;99.90
36206;DHT22;22242;48.796;9.930;2023-04-24T08:53:57;14.10;99.90
36206;DHT22;22242;48.796;9.930;2023-04-24T08:56:26;15.00;99.90
36206;DHT22;22242;48.796;9.930;2023-04-24T08:58:56;15.30;99.90
36206;DHT22;22242;48.796;9.930;2023-04-24T09:01:25;15.00;99.90
36206;DHT22;22242;48.796;9.930;2023-04-24T09:03:55;14.90;99.90
36206;DHT22;22242;48.796;9.930;2023-04-24T09:06:24;16.80;99.90
36206;DHT22;22242;48.796;9.930;2023-04-24T09:08:54;15.50;99.90
36206;DHT22;22242;48.796;9.930;2023-04-24T09:11:22;15.20;99.90
36206;DHT22;22242;48.796;9.930;2023-04-24T09:13:53;15.20;99.90
36206;DHT22;22242;48.796;9.930;2023-04-24T09:16:20;13.60;99.90
36206;DHT22;22242;48.796;9.930;2023-04-24T09:18:49;12.70;99.90
36206;DHT22;22242;48.796;9.930;2023-04-24T09:21:16;12.20;99.90
36206;DHT22;22242;48.796;9.930;2023-04-24T09:23:43;11.80;99.90
36206;DHT22;22242;48.796;9.930;2023-04-24T09:26:10;11.40;99.90
36206;DHT22;22242;48.796;9.930;2023-04-24T09:28:40;11.10;99.90
36206;DHT22;22242;48.796;9.930;2023-04-24T09:31:12;11.00;99.90
36206;DHT22;22242;48.796;9.930;2023-04-24T09:33:39;11.60;99.90
36206;DHT22;22242;48.796;9.930;2023-04-24T09:36:07;13.60;99.90
36206;DHT22;22242;48.796;9.930;2023-04-24T09:38:35;14.00;99.90
36206;DHT22;22242;48.796;9.930;2023-04-24T09:41:05;14.40;99.90
36206;DHT22;22242;48.796;9.930;2023-04-24T09:43:32;16.20;99.90
36206;DHT22;22242;48.796;9.930;2023-04-24T09:46:05;17.30;99.90
36206;DHT22;22242;48.796;9.930;2023-04-24T09:48:35;17.70;99.90
36206;DHT22;22242;48.796;9.930;2023-04-24T09:51:04;17.20;99.30
36206;DHT22;22242;48.796;9.930;2023-04-24T09:53:32;16.00;98.50
36206;DHT22;22242;48.796;9.930;2023-04-24T09:56:06;14.80;99.90
36206;DHT22;22242;48.796;9.930;2023-04-24T09:58:34;16.00;99.90
36206;DHT22;22242;48.796;9.930;2023-04-24T10:01:02;15.80;98.40
36206;DHT22;22242;48.796;9.930;2023-04-24T10:03:30;14.70;99.90
36206;DHT22;22242;48.796;9.930;2023-04-24T10:06:00;13.40;99.90
36206;DHT22;22242;48.796;9.930;2023-04-24T10:08:33;12.40;99.90
36206;DHT22;22242;48.796;9.930;2023-04-24T10:11:01;12.20;99.90
36206;DHT22;22242;48.796;9.930;2023-04-24T10:13:29;11.80;99.90
36206;DHT22;22242;48.796;9.930;2023-04-24T10:15:56;11.30;99.90
36206;DHT22;22242;48.796;9.930;2023-04-24T10:18:26;11.40;99.90
36206;DHT22;22242;48.796;9.930;2023-04-24T10:20:54;11.50;99.90
36206;DHT22;22242;48.796;9.930;2023-04-24T10:23:24;11.30;99.90
36206;DHT22;22242;48.796;9.930;2023-04-24T10:25:52;11.20;99.90
36206;DHT22;22242;48.796;9.930;2023-04-24T10:28:20;11.10;99.90
36206;DHT22;22242;48.796;9.930;2023-04-24T10:30:49;10.80;99.90
36206;DHT22;22242;48.796;9.930;2023-04-24T10:33:21;11.20;99.90
36206;DHT22;22242;48.796;9.930;2023-04-24T10:35:50;11.80;99.90
36206;DHT22;22242;48.796;9.930;2023-04-24T10:38:24;12.10;99.90
36206;DHT22;22242;48.796;9.930;2023-04-24T10:40:57;13.90;99.90
36206;DHT22;22242;48.796;9.930;2023-04-24T10:43:24;13.40;99.90
36206;DHT22;22242;48.796;9.930;2023-04-24T10:46:01;12.80;99.90
36206;DHT22;22242;48.796;9.930;2023-04-24T10:48:29;12.60;99.90
36206;DHT22;22242;48.796;9.930;2023-04-24T10:50:56;12.90;99.90
36206;DHT22;22242;48.796;9.930;2023-04-24T10:53:29;13.80;99.90
36206;DHT22;22242;48.796;9.930;2023-04-24T10:56:03;14.90;99.90
36206;DHT22;22242;48.796;9.930;2023-04-24T10:58:39;16.10;99.90
36206;DHT22;22242;48.796;9.930;2023-04-24T11:01:07;15.30;99.90
36206;DHT22;22242;48.796;9.930;2023-04-24T11:03:35;13.80;99.90
36206;DHT22;22242;48.796;9.930;2023-04-24T11:06:03;12.70;99.90
36206;DHT22;22242;48.796;9.930;2023-04-24T11:08:37;12.10;99.90
36206;DHT22;22242;48.796;9.930;2023-04-24T11:11:08;12.00;99.90
36206;DHT22;22242;48.796;9.930;2023-04-24T11:14:06;12.40;99.90
36206;DHT22;22242;48.796;9.930;2023-04-24T11:16:37;12.40;99.90
36206;DHT22;22242;48.796;9.930;2023-04-24T11:19:06;12.60;99.90
36206;DHT22;22242;48.796;9.930;2023-04-24T11:21:44;14.40;99.90
36206;DHT22;22242;48.796;9.930;2023-04-24T11:24:30;15.50;99.90
36206;DHT22;22242;48.796;9.930;2023-04-24T11:26:58;14.60;99.90
36206;DHT22;22242;48.796;9.930;2023-04-24T11:29:47;14.90;99.90
36206;DHT22;22242;48.796;9.930;2023-04-24T11:32:16;15.50;99.90
36206;DHT22;22242;48.796;9.930;2023-04-24T11:34:46;15.10;99.30
36206;DHT22;22242;48.796;9.930;2023-04-24T11:37:13;14.00;98.80
36206;DHT22;22242;48.796;9.930;2023-04-24T11:39:41;12.90;99.90
36206;DHT22;22242;48.796;9.930;2023-04-24T11:42:09;13.00;99.90
36206;DHT22;22242;48.796;9.930;2023-04-24T11:44:36;12.70;99.90
36206;DHT22;22242;48.796;9.930;2023-04-24T11:47:04;11.90;99.90
36206;DHT22;22242;48.796;9.930;2023-04-24T11:49:32;11.70;99.90
36206;DHT22;22242;48.796;9.930;2023-04-24T11:52:00;11.50;99.90
36206;DHT22;22242;48.796;9.930;2023-04-24T11:54:27;11.50;99.90
36206;DHT22;22242;48.796;9.930;2023-04-24T11:56:56;11.70;99.90
36206;DHT22;22242;48.796;9.930;2023-04-24T11:59:23;11.80;99.90
36206;DHT22;22242;48.796;9.930;2023-04-24T12:01:50;11.80;99.90
36206;DHT22;22242;48.796;9.930;2023-04-24T12:04:18;12.00;99.90
36206;DHT22;22242;48.796;9.930;2023-04-24T12:07:00;12.00;99.90
36206;DHT22;22242;48.796;9.930;2023-04-24T12:09:27;11.80;99.90
36206;DHT22;22242;48.796;9.930;2023-04-24T12:11:56;12.10;99.90
36206;DHT22;22242;48.796;9.930;2023-04-24T12:14:23;12.20;99.90
36206;DHT22;22242;48.796;9.930;2023-04-24T12:16:51;12.50;99.90
36206;DHT22;22242;48.796;9.930;2023-04-24T12:19:20;12.40;99.90
36206;DHT22;22242;48.796;9.930;2023-04-24T12:21:59;12.60;99.90
36206;DHT22;22242;48.796;9.930;2023-04-24T12:24:26;12.90;99.90
36206;DHT22;22242;48.796;9.930;2023-04-24T12:26:54;12.70;99.90
36206;DHT22;22242;48.796;9.930;2023-04-24T12:29:22;12.10;99.90
36206;DHT22;22242;48.796;9.930;2023-04-24T12:31:50;11.80;99.90
36206;DHT22;22242;48.796;9.930;2023-04-24T12:34:18;11.60;99.90
36206;DHT22;22242;48.796;9.930;2023-04-24T12:36:46;11.30;99.90
36206;DHT22;22242;48.796;9.930;2023-04-24T12:39:16;11.60;99.90
36206;DHT22;22242;48.796;9.930;2023-04-24T12:41:55;11.90;99.90
36206;DHT22;22242;48.796;9.930;2023-04-24T12:44:30;12.80;99.90
36206;DHT22;22242;48.796;9.930;2023-04-24T12:47:00;13.00;99.90
36206;DHT22;22242;48.796;9.930;2023-04-24T12:49:27;12.90;99.90
36206;DHT22;22242;48.796;9.930;2023-04-24T12:51:54;12.70;99.90
36206;DHT22;22242;48.796;9.930;2023-04-24T12:54:22;12.70;99.90
36206;DHT22;22242;48.796;9.930;2023-04-24T12:56:49;12.00;99.90
36206;DHT22;22242;48.796;9.930;2023-04-24T12:59:17;11.50;99.90
36206;DHT22;22242;48.796;9.930;2023-04-24T13:01:44;10.90;99.90
36206;DHT22;22242;48.796;9.930;2023-04-24T13:04:11;10.70;99.90
36206;DHT22;22242;48.796;9.930;2023-04-24T13:06:38;10.50;99.90
36206;DHT22;22242;48.796;9.930;2023-04-24T13:09:05;10.40;99.90
36206;DHT22;22242;48.796;9.930;2023-04-24T13:11:32;10.60;99.90
36206;DHT22;22242;48.796;9.930;2023-04-24T13:14:00;10.90;99.90
36206;DHT22;22242;48.796;9.930;2023-04-24T13:16:28;11.40;99.90
36206;DHT22;22242;48.796;9.930;2023-04-24T13:18:55;11.80;99.90
36206;DHT22;22242;48.796;9.930;2023-04-24T13:21:23;12.20;99.90
36206;DHT22;22242;48.796;9.930;2023-04-24T13:23:49;12.40;99.90
36206;DHT22;22242;48.796;9.930;2023-04-24T13:26:17;12.40;99.90
36206;DHT22;22242;48.796;9.930;2023-04-24T13:28:44;12.20;99.90
36206;DHT22;22242;48.796;9.930;2023-04-24T13:31:12;11.80;99.90
36206;DHT22;22242;48.796;9.930;2023-04-24T13:33:40;11.50;99.90
36206;DHT22;22242;48.796;9.930;2023-04-24T13:36:08;11.60;99.90
36206;DHT22;22242;48.796;9.930;2023-04-24T13:38:34;11.60;99.90
36206;DHT22;22242;48.796;9.930;2023-04-24T13:41:02;11.40;99.90
36206;DHT22;22242;48.796;9.930;2023-04-24T13:43:29;11.80;99.90
36206;DHT22;22242;48.796;9.930;2023-04-24T13:45:56;11.80;99.90
36206;DHT22;22242;48.796;9.930;2023-04-24T13:48:25;11.60;99.90
36206;DHT22;22242;48.796;9.930;2023-04-24T13:50:53;11.80;99.90
36206;DHT22;22242;48.796;9.930;2023-04-24T13:53:20;12.20;99.90
36206;DHT22;22242;48.796;9.930;2023-04-24T13:55:47;12.50;99.90
36206;DHT22;22242;48.796;9.930;2023-04-24T13:58:15;12.10;99.90
36206;DHT22;22242;48.796;9.930;2023-04-24T14:00:42;11.90;99.90
36206;DHT22;22242;48.796;9.930;2023-04-24T14:03:09;11.50;99.90
36206;DHT22;22242;48.796;9.930;2023-04-24T14:05:36;11.30;99.90
36206;DHT22;22242;48.796;9.930;2023-04-24T14:08:05;11.10;99.90
36206;DHT22;22242;48.796;9.930;2023-04-24T14:10:32;10.90;99.90
36206;DHT22;22242;48.796;9.930;2023-04-24T14:12:59;10.80;99.90
36206;DHT22;22242;48.796;9.930;2023-04-24T14:15:26;10.70;99.90
36206;DHT22;22242;48.796;9.930;2023-04-24T14:17:54;10.20;99.90
36206;DHT22;22242;48.796;9.930;2023-04-24T14:20:22;9.90;99.90
36206;DHT22;22242;48.796;9.930;2023-04-24T14:22:49;9.60;99.90
36206;DHT22;22242;48.796;9.930;2023-04-24T14:25:17;9.60;99.90
36206;DHT22;22242;48.796;9.930;2023-04-24T14:27:44;9.70;99.90
36206;DHT22;22242;48.796;9.930;2023-04-24T14:30:13;9.90;99.90
36206;DHT22;22242;48.796;9.930;2023-04-24T14:32:40;10.60;99.90
36206;DHT22;22242;48.796;9.930;2023-04-24T14:35:08;10.80;99.90
36206;DHT22;22242;48.796;9.930;2023-04-24T14:37:36;11.00;99.90
36206;DHT22;22242;48.796;9.930;2023-04-24T14:40:04;11.10;99.90
36206;DHT22;22242;48.796;9.930;2023-04-24T14:42:33;11.20;99.90
36206;DHT22;22242;48.796;9.930;2023-04-24T14:45:01;11.20;99.90
36206;DHT22;22242;48.796;9.930;2023-04-24T14:47:28;11.10;99.90
36206;DHT22;22242;48.796;9.930;2023-04-24T14:49:55;11.10;99.90
36206;DHT22;22242;48.796;9.930;2023-04-24T14:52:22;11.30;99.90
36206;DHT22;22242;48.796;9.930;2023-04-24T14:54:49;11.40;99.90
36206;DHT22;22242;48.796;9.930;2023-04-24T14:57:16;11.00;99.90
36206;DHT22;22242;48.796;9.930;2023-04-24T14:59:45;10.80;99.90
36206;DHT22;22242;48.796;9.930;2023-04-24T15:02:12;10.00;99.90
36206;DHT22;22242;48.796;9.930;2023-04-24T15:04:39;9.50;99.90
36206;DHT22;22242;48.796;9.930;2023-04-24T15:07:06;9.00;99.90
36206;DHT22;22242;48.796;9.930;2023-04-24T15:09:33;8.90;99.90
36206;DHT22;22242;48.796;9.930;2023-04-24T15:12:00;8.80;99.90
36206;DHT22;22242;48.796;9.930;2023-04-24T15:14:27;8.70;99.90
36206;DHT22;22242;48.796;9.930;2023-04-24T15:16:55;8.80;99.90
36206;DHT22;22242;48.796;9.930;2023-04-24T15:19:23;9.00;99.90
36206;DHT22;22242;48.796;9.930;2023-04-24T15:21:49;9.20;99.90
36206;DHT22;22242;48.796;9.930;2023-04-24T15:24:16;9.40;99.90
36206;DHT22;22242;48.796;9.930;2023-04-24T15:26:44;9.60;99.90
36206;DHT22;22242;48.796;9.930;2023-04-24T15:29:11;10.20;99.90
36206;DHT22;22242;48.796;9.930;2023-04-24T15:31:38;10.30;99.90
36206;DHT22;22242;48.796;9.930;2023-04-24T15:34:07;10.60;99.90
36206;DHT22;22242;48.796;9.930;2023-04-24T15:36:34;10.60;99.90
36206;DHT22;22242;48.796;9.930;2023-04-24T15:39:01;10.40;99.90
36206;DHT22;22242;48.796;9.930;2023-04-24T15:41:29;10.40;99.90